sensor_id;sensor_type;location;lat;lon;timestamp;P1;durP1;ratioP1;P2;durP2;ratioP2
41984;SDS011;28319;48.116;10.818;2023-09-30T00:04:13;18.13;;;8.98;;
41984;SDS011;28319;48.116;10.818;2023-09-30T00:09:17;20.20;;;9.10;;
41984;SDS011;28319;48.116;10.818;2023-09-30T00:14:19;16.55;;;7.90;;
41984;SDS011;28319;48.116;10.818;2023-09-30T00:19:21;18.23;;;8.63;;
41984;SDS011;28319;48.116;10.818;2023-09-30T00:24:25;16.20;;;8.35;;
41984;SDS011;28319;48.116;10.818;2023-09-30T00:29:27;17.02;;;7.80;;
41984;SDS011;28319;48.116;10.818;2023-09-30T00:34:31;18.52;;;8.13;;
41984;SDS011;28319;48.116;10.818;2023-09-30T00:39:36;17.98;;;7.53;;
41984;SDS011;28319;48.116;10.818;2023-09-30T00:44:38;19.45;;;8.63;;
41984;SDS011;28319;48.116;10.818;2023-09-30T00:49:40;17.73;;;8.07;;
41984;SDS011;28319;48.116;10.818;2023-09-30T00:54:45;17.05;;;7.80;;
41984;SDS011;28319;48.116;10.818;2023-09-30T00:59:48;16.17;;;7.68;;
41984;SDS011;28319;48.116;10.818;2023-09-30T01:04:52;18.70;;;8.15;;
41984;SDS011;28319;48.116;10.818;2023-09-30T01:09:56;18.58;;;7.93;;
41984;SDS011;28319;48.116;10.818;2023-09-30T01:14:59;17.95;;;7.57;;
41984;SDS011;28319;48.116;10.818;2023-09-30T01:20:02;16.40;;;7.68;;
41984;SDS011;28319;48.116;10.818;2023-09-30T01:25:08;18.05;;;7.85;;
41984;SDS011;28319;48.116;10.818;2023-09-30T01:30:11;17.95;;;7.82;;
41984;SDS011;28319;48.116;10.818;2023-09-30T01:35:14;18.48;;;7.97;;
41984;SDS011;28319;48.116;10.818;2023-09-30T01:40:17;16.00;;;7.60;;
41984;SDS011;28319;48.116;10.818;2023-09-30T01:45:19;15.57;;;7.35;;
41984;SDS011;28319;48.116;10.818;2023-09-30T01:50:21;16.23;;;6.75;;
41984;SDS011;28319;48.116;10.818;2023-09-30T01:55:26;19.27;;;7.85;;
41984;SDS011;28319;48.116;10.818;2023-09-30T02:00:28;15.00;;;7.43;;
41984;SDS011;28319;48.116;10.818;2023-09-30T02:05:30;20.05;;;8.13;;
41984;SDS011;28319;48.116;10.818;2023-09-30T02:10:34;16.73;;;7.70;;
41984;SDS011;28319;48.116;10.818;2023-09-30T02:15:39;14.50;;;7.40;;
41984;SDS011;28319;48.116;10.818;2023-09-30T02:20:44;13.27;;;7.15;;
41984;SDS011;28319;48.116;10.818;2023-09-30T02:25:48;15.10;;;7.03;;
41984;SDS011;28319;48.116;10.818;2023-09-30T02:30:50;12.50;;;6.40;;
41984;SDS011;28319;48.116;10.818;2023-09-30T02:35:53;14.38;;;6.97;;
41984;SDS011;28319;48.116;10.818;2023-09-30T02:40:59;14.77;;;6.68;;
41984;SDS011;28319;48.116;10.818;2023-09-30T02:46:01;17.88;;;7.20;;
41984;SDS011;28319;48.116;10.818;2023-09-30T02:51:04;14.38;;;6.85;;
41984;SDS011;28319;48.116;10.818;2023-09-30T02:56:12;17.00;;;7.68;;
41984;SDS011;28319;48.116;10.818;2023-09-30T03:01:14;13.30;;;6.55;;
41984;SDS011;28319;48.116;10.818;2023-09-30T03:06:17;15.30;;;7.13;;
41984;SDS011;28319;48.116;10.818;2023-09-30T03:11:22;17.45;;;6.68;;
41984;SDS011;28319;48.116;10.818;2023-09-30T03:16:24;18.48;;;6.95;;
41984;SDS011;28319;48.116;10.818;2023-09-30T03:21:26;15.40;;;6.95;;
41984;SDS011;28319;48.116;10.818;2023-09-30T03:26:30;16.23;;;7.32;;
41984;SDS011;28319;48.116;10.818;2023-09-30T03:31:32;14.55;;;6.45;;
41984;SDS011;28319;48.116;10.818;2023-09-30T03:36:34;13.25;;;6.28;;
41984;SDS011;28319;48.116;10.818;2023-09-30T03:41:38;15.15;;;6.28;;
41984;SDS011;28319;48.116;10.818;2023-09-30T03:46:40;13.27;;;6.63;;
41984;SDS011;28319;48.116;10.818;2023-09-30T03:51:43;11.80;;;6.00;;
41984;SDS011;28319;48.116;10.818;2023-09-30T03:56:46;15.98;;;6.07;;
41984;SDS011;28319;48.116;10.818;2023-09-30T04:01:49;11.60;;;5.93;;
41984;SDS011;28319;48.116;10.818;2023-09-30T04:06:51;11.05;;;5.60;;
41984;SDS011;28319;48.116;10.818;2023-09-30T04:11:55;10.63;;;5.32;;
41984;SDS011;28319;48.116;10.818;2023-09-30T04:16:57;13.30;;;5.82;;
41984;SDS011;28319;48.116;10.818;2023-09-30T04:21:59;12.15;;;5.68;;
41984;SDS011;28319;48.116;10.818;2023-09-30T04:27:02;12.25;;;5.07;;
41984;SDS011;28319;48.116;10.818;2023-09-30T04:32:06;12.27;;;5.93;;
41984;SDS011;28319;48.116;10.818;2023-09-30T04:37:08;13.48;;;5.57;;
41984;SDS011;28319;48.116;10.818;2023-09-30T04:42:12;10.10;;;5.45;;
41984;SDS011;28319;48.116;10.818;2023-09-30T04:47:15;12.10;;;5.00;;
41984;SDS011;28319;48.116;10.818;2023-09-30T04:52:18;12.13;;;4.85;;
41984;SDS011;28319;48.116;10.818;2023-09-30T04:57:22;14.50;;;5.30;;
41984;SDS011;28319;48.116;10.818;2023-09-30T05:02:24;10.90;;;5.43;;
41984;SDS011;28319;48.116;10.818;2023-09-30T05:07:27;13.27;;;5.20;;
41984;SDS011;28319;48.116;10.818;2023-09-30T05:12:31;10.77;;;4.85;;
41984;SDS011;28319;48.116;10.818;2023-09-30T05:17:33;11.25;;;5.03;;
41984;SDS011;28319;48.116;10.818;2023-09-30T05:22:35;10.70;;;4.90;;
41984;SDS011;28319;48.116;10.818;2023-09-30T05:27:40;9.15;;;4.72;;
41984;SDS011;28319;48.116;10.818;2023-09-30T05:32:42;8.95;;;4.70;;
41984;SDS011;28319;48.116;10.818;2023-09-30T05:37:46;12.65;;;5.72;;
41984;SDS011;28319;48.116;10.818;2023-09-30T05:42:50;11.07;;;4.78;;
41984;SDS011;28319;48.116;10.818;2023-09-30T05:47:53;9.10;;;5.05;;
41984;SDS011;28319;48.116;10.818;2023-09-30T05:52:57;10.57;;;5.25;;
41984;SDS011;28319;48.116;10.818;2023-09-30T05:58:00;10.70;;;5.00;;
41984;SDS011;28319;48.116;10.818;2023-09-30T06:03:03;13.05;;;5.22;;
41984;SDS011;28319;48.116;10.818;2023-09-30T06:08:07;10.13;;;4.80;;
41984;SDS011;28319;48.116;10.818;2023-09-30T06:13:12;9.60;;;4.95;;
41984;SDS011;28319;48.116;10.818;2023-09-30T06:18:15;9.48;;;4.90;;
41984;SDS011;28319;48.116;10.818;2023-09-30T06:23:18;10.02;;;4.75;;
41984;SDS011;28319;48.116;10.818;2023-09-30T06:28:21;8.35;;;4.30;;
41984;SDS011;28319;48.116;10.818;2023-09-30T06:33:26;10.18;;;5.38;;
41984;SDS011;28319;48.116;10.818;2023-09-30T06:38:29;11.60;;;4.80;;
41984;SDS011;28319;48.116;10.818;2023-09-30T06:43:33;7.32;;;4.30;;
41984;SDS011;28319;48.116;10.818;2023-09-30T06:48:36;9.40;;;4.22;;
41984;SDS011;28319;48.116;10.818;2023-09-30T06:53:41;13.98;;;5.10;;
41984;SDS011;28319;48.116;10.818;2023-09-30T06:58:45;8.35;;;4.43;;
41984;SDS011;28319;48.116;10.818;2023-09-30T07:03:47;9.50;;;4.45;;
41984;SDS011;28319;48.116;10.818;2023-09-30T07:08:50;10.32;;;5.05;;
41984;SDS011;28319;48.116;10.818;2023-09-30T07:13:55;8.52;;;4.65;;
41984;SDS011;28319;48.116;10.818;2023-09-30T07:18:58;10.73;;;4.40;;
41984;SDS011;28319;48.116;10.818;2023-09-30T07:24:00;10.43;;;4.50;;
41984;SDS011;28319;48.116;10.818;2023-09-30T07:29:04;10.55;;;4.68;;
41984;SDS011;28319;48.116;10.818;2023-09-30T07:34:06;8.63;;;4.55;;
41984;SDS011;28319;48.116;10.818;2023-09-30T07:39:08;7.63;;;4.47;;
41984;SDS011;28319;48.116;10.818;2023-09-30T07:44:12;9.57;;;4.43;;
41984;SDS011;28319;48.116;10.818;2023-09-30T07:49:14;7.28;;;4.32;;
41984;SDS011;28319;48.116;10.818;2023-09-30T07:54:16;7.95;;;4.18;;
41984;SDS011;28319;48.116;10.818;2023-09-30T07:59:19;7.78;;;3.58;;
41984;SDS011;28319;48.116;10.818;2023-09-30T08:04:23;5.13;;;3.40;;
41984;SDS011;28319;48.116;10.818;2023-09-30T08:09:25;6.25;;;3.33;;
41984;SDS011;28319;48.116;10.818;2023-09-30T08:14:29;6.50;;;3.92;;
41984;SDS011;28319;48.116;10.818;2023-09-30T08:19:31;7.20;;;3.80;;
41984;SDS011;28319;48.116;10.818;2023-09-30T08:24:33;11.25;;;3.67;;
41984;SDS011;28319;48.116;10.818;2023-09-30T08:29:37;6.45;;;3.63;;
41984;SDS011;28319;48.116;10.818;2023-09-30T08:34:39;5.38;;;3.45;;
41984;SDS011;28319;48.116;10.818;2023-09-30T08:39:42;6.32;;;3.45;;
41984;SDS011;28319;48.116;10.818;2023-09-30T08:44:45;8.55;;;3.90;;
41984;SDS011;28319;48.116;10.818;2023-09-30T08:49:49;7.30;;;3.83;;
41984;SDS011;28319;48.116;10.818;2023-09-30T08:54:56;7.47;;;3.80;;
41984;SDS011;28319;48.116;10.818;2023-09-30T09:00:00;6.60;;;3.55;;
41984;SDS011;28319;48.116;10.818;2023-09-30T09:05:02;6.38;;;3.80;;
41984;SDS011;28319;48.116;10.818;2023-09-30T09:10:06;7.72;;;3.88;;
41984;SDS011;28319;48.116;10.818;2023-09-30T09:15:21;7.57;;;3.80;;
41984;SDS011;28319;48.116;10.818;2023-09-30T09:20:25;8.50;;;3.78;;
41984;SDS011;28319;48.116;10.818;2023-09-30T09:25:28;10.18;;;4.20;;
41984;SDS011;28319;48.116;10.818;2023-09-30T09:30:40;10.65;;;4.07;;
41984;SDS011;28319;48.116;10.818;2023-09-30T09:35:43;8.15;;;4.53;;
41984;SDS011;28319;48.116;10.818;2023-09-30T09:40:50;7.88;;;4.18;;
41984;SDS011;28319;48.116;10.818;2023-09-30T09:45:53;8.80;;;4.78;;
41984;SDS011;28319;48.116;10.818;2023-09-30T09:50:58;9.70;;;4.13;;
41984;SDS011;28319;48.116;10.818;2023-09-30T09:56:00;8.30;;;4.20;;
41984;SDS011;28319;48.116;10.818;2023-09-30T10:01:06;8.18;;;4.32;;
41984;SDS011;28319;48.116;10.818;2023-09-30T10:06:10;9.98;;;4.75;;
41984;SDS011;28319;48.116;10.818;2023-09-30T10:11:16;10.80;;;4.57;;
41984;SDS011;28319;48.116;10.818;2023-09-30T10:27:30;11.07;;;4.30;;
41984;SDS011;28319;48.116;10.818;2023-09-30T10:43:43;11.68;;;5.15;;
41984;SDS011;28319;48.116;10.818;2023-09-30T10:48:46;10.68;;;5.22;;
41984;SDS011;28319;48.116;10.818;2023-09-30T10:53:49;11.05;;;5.28;;
41984;SDS011;28319;48.116;10.818;2023-09-30T10:58:53;11.73;;;5.53;;
41984;SDS011;28319;48.116;10.818;2023-09-30T11:03:59;12.77;;;6.25;;
41984;SDS011;28319;48.116;10.818;2023-09-30T11:09:04;11.32;;;5.60;;
41984;SDS011;28319;48.116;10.818;2023-09-30T11:14:19;8.32;;;4.40;;
41984;SDS011;28319;48.116;10.818;2023-09-30T11:19:23;11.05;;;5.40;;
41984;SDS011;28319;48.116;10.818;2023-09-30T11:24:27;11.50;;;5.97;;
41984;SDS011;28319;48.116;10.818;2023-09-30T11:29:29;10.68;;;5.25;;
41984;SDS011;28319;48.116;10.818;2023-09-30T11:34:33;10.05;;;5.43;;
41984;SDS011;28319;48.116;10.818;2023-09-30T11:39:36;12.60;;;5.68;;
41984;SDS011;28319;48.116;10.818;2023-09-30T11:44:43;10.82;;;5.43;;
41984;SDS011;28319;48.116;10.818;2023-09-30T11:49:52;11.18;;;5.50;;
41984;SDS011;28319;48.116;10.818;2023-09-30T11:54:55;11.93;;;5.82;;
41984;SDS011;28319;48.116;10.818;2023-09-30T11:59:58;11.55;;;5.75;;
41984;SDS011;28319;48.116;10.818;2023-09-30T12:05:01;11.73;;;5.45;;
41984;SDS011;28319;48.116;10.818;2023-09-30T12:10:11;9.07;;;4.78;;
41984;SDS011;28319;48.116;10.818;2023-09-30T12:15:15;10.63;;;5.10;;
41984;SDS011;28319;48.116;10.818;2023-09-30T12:20:18;12.25;;;5.20;;
41984;SDS011;28319;48.116;10.818;2023-09-30T12:25:20;10.57;;;5.72;;
41984;SDS011;28319;48.116;10.818;2023-09-30T12:30:24;9.70;;;5.22;;
41984;SDS011;28319;48.116;10.818;2023-09-30T12:35:28;11.68;;;5.68;;
41984;SDS011;28319;48.116;10.818;2023-09-30T12:40:30;11.80;;;5.60;;
41984;SDS011;28319;48.116;10.818;2023-09-30T12:45:34;10.38;;;5.85;;
41984;SDS011;28319;48.116;10.818;2023-09-30T12:50:38;11.05;;;5.78;;
41984;SDS011;28319;48.116;10.818;2023-09-30T12:55:40;14.30;;;5.90;;
41984;SDS011;28319;48.116;10.818;2023-09-30T13:00:43;9.82;;;5.22;;
41984;SDS011;28319;48.116;10.818;2023-09-30T13:05:46;10.20;;;5.07;;
41984;SDS011;28319;48.116;10.818;2023-09-30T13:10:49;11.77;;;5.90;;
41984;SDS011;28319;48.116;10.818;2023-09-30T13:15:52;9.77;;;5.50;;
41984;SDS011;28319;48.116;10.818;2023-09-30T13:20:56;10.43;;;5.68;;
41984;SDS011;28319;48.116;10.818;2023-09-30T13:25:58;11.45;;;5.55;;
41984;SDS011;28319;48.116;10.818;2023-09-30T13:31:00;10.52;;;5.68;;
41984;SDS011;28319;48.116;10.818;2023-09-30T13:36:04;9.35;;;5.55;;
41984;SDS011;28319;48.116;10.818;2023-09-30T13:41:06;8.50;;;5.22;;
41984;SDS011;28319;48.116;10.818;2023-09-30T13:46:08;11.20;;;5.60;;
41984;SDS011;28319;48.116;10.818;2023-09-30T13:51:13;11.15;;;5.35;;
41984;SDS011;28319;48.116;10.818;2023-09-30T13:56:15;11.63;;;5.88;;
41984;SDS011;28319;48.116;10.818;2023-09-30T14:01:18;11.45;;;5.95;;
41984;SDS011;28319;48.116;10.818;2023-09-30T14:06:22;11.25;;;5.47;;
41984;SDS011;28319;48.116;10.818;2023-09-30T14:11:24;10.02;;;5.22;;
41984;SDS011;28319;48.116;10.818;2023-09-30T14:16:26;11.50;;;6.15;;
41984;SDS011;28319;48.116;10.818;2023-09-30T14:21:29;12.10;;;5.88;;
41984;SDS011;28319;48.116;10.818;2023-09-30T14:26:33;10.50;;;4.85;;
41984;SDS011;28319;48.116;10.818;2023-09-30T14:31:35;12.77;;;5.53;;
41984;SDS011;28319;48.116;10.818;2023-09-30T14:36:39;13.15;;;5.45;;
41984;SDS011;28319;48.116;10.818;2023-09-30T14:41:41;11.82;;;5.30;;
41984;SDS011;28319;48.116;10.818;2023-09-30T14:46:43;10.82;;;5.07;;
41984;SDS011;28319;48.116;10.818;2023-09-30T14:51:47;8.60;;;4.93;;
41984;SDS011;28319;48.116;10.818;2023-09-30T14:56:49;11.90;;;4.60;;
41984;SDS011;28319;48.116;10.818;2023-09-30T15:01:51;11.13;;;4.95;;
41984;SDS011;28319;48.116;10.818;2023-09-30T15:06:55;10.55;;;5.10;;
41984;SDS011;28319;48.116;10.818;2023-09-30T15:11:57;10.13;;;5.32;;
41984;SDS011;28319;48.116;10.818;2023-09-30T15:16:59;10.80;;;5.10;;
41984;SDS011;28319;48.116;10.818;2023-09-30T15:22:03;8.27;;;4.88;;
41984;SDS011;28319;48.116;10.818;2023-09-30T15:27:05;9.82;;;4.78;;
41984;SDS011;28319;48.116;10.818;2023-09-30T15:32:07;10.35;;;5.32;;
41984;SDS011;28319;48.116;10.818;2023-09-30T15:37:11;10.82;;;5.40;;
41984;SDS011;28319;48.116;10.818;2023-09-30T15:42:13;10.48;;;4.88;;
41984;SDS011;28319;48.116;10.818;2023-09-30T15:47:15;12.85;;;5.45;;
41984;SDS011;28319;48.116;10.818;2023-09-30T15:52:21;11.23;;;5.93;;
41984;SDS011;28319;48.116;10.818;2023-09-30T15:57:23;9.00;;;5.25;;
41984;SDS011;28319;48.116;10.818;2023-09-30T16:02:25;12.23;;;5.60;;
41984;SDS011;28319;48.116;10.818;2023-09-30T16:07:29;9.25;;;4.93;;
41984;SDS011;28319;48.116;10.818;2023-09-30T16:12:31;9.40;;;4.82;;
41984;SDS011;28319;48.116;10.818;2023-09-30T16:17:33;10.73;;;5.35;;
41984;SDS011;28319;48.116;10.818;2023-09-30T16:22:37;10.73;;;5.20;;
41984;SDS011;28319;48.116;10.818;2023-09-30T16:27:39;17.65;;;5.95;;
41984;SDS011;28319;48.116;10.818;2023-09-30T16:32:42;10.07;;;5.38;;
41984;SDS011;28319;48.116;10.818;2023-09-30T16:37:45;10.32;;;5.53;;
41984;SDS011;28319;48.116;10.818;2023-09-30T16:42:48;12.30;;;6.00;;
41984;SDS011;28319;48.116;10.818;2023-09-30T16:47:50;40.30;;;24.17;;
41984;SDS011;28319;48.116;10.818;2023-09-30T16:52:55;13.20;;;6.50;;
41984;SDS011;28319;48.116;10.818;2023-09-30T16:57:57;14.07;;;6.40;;
41984;SDS011;28319;48.116;10.818;2023-09-30T17:02:59;10.35;;;6.00;;
41984;SDS011;28319;48.116;10.818;2023-09-30T17:08:03;9.73;;;6.10;;
41984;SDS011;28319;48.116;10.818;2023-09-30T17:13:06;9.55;;;6.07;;
41984;SDS011;28319;48.116;10.818;2023-09-30T17:18:08;10.10;;;5.75;;
41984;SDS011;28319;48.116;10.818;2023-09-30T17:23:12;10.65;;;5.70;;
41984;SDS011;28319;48.116;10.818;2023-09-30T17:28:14;12.55;;;5.68;;
41984;SDS011;28319;48.116;10.818;2023-09-30T17:33:16;14.10;;;5.90;;
41984;SDS011;28319;48.116;10.818;2023-09-30T17:38:21;9.05;;;5.10;;
41984;SDS011;28319;48.116;10.818;2023-09-30T17:43:23;10.35;;;5.90;;
41984;SDS011;28319;48.116;10.818;2023-09-30T17:48:25;9.88;;;5.25;;
41984;SDS011;28319;48.116;10.818;2023-09-30T17:53:29;9.98;;;5.65;;
41984;SDS011;28319;48.116;10.818;2023-09-30T17:58:32;10.18;;;5.57;;
41984;SDS011;28319;48.116;10.818;2023-09-30T18:03:34;8.77;;;5.10;;
41984;SDS011;28319;48.116;10.818;2023-09-30T18:08:37;9.10;;;5.53;;
41984;SDS011;28319;48.116;10.818;2023-09-30T18:13:40;9.48;;;5.35;;
41984;SDS011;28319;48.116;10.818;2023-09-30T18:18:42;8.73;;;4.93;;
41984;SDS011;28319;48.116;10.818;2023-09-30T18:23:45;10.63;;;5.30;;
41984;SDS011;28319;48.116;10.818;2023-09-30T18:28:47;9.30;;;5.70;;
41984;SDS011;28319;48.116;10.818;2023-09-30T18:33:49;10.45;;;5.10;;
41984;SDS011;28319;48.116;10.818;2023-09-30T18:38:54;9.95;;;5.10;;
41984;SDS011;28319;48.116;10.818;2023-09-30T18:43:56;9.75;;;5.25;;
41984;SDS011;28319;48.116;10.818;2023-09-30T18:48:58;8.82;;;5.18;;
41984;SDS011;28319;48.116;10.818;2023-09-30T18:54:01;8.38;;;4.90;;
41984;SDS011;28319;48.116;10.818;2023-09-30T18:59:03;8.57;;;4.75;;
41984;SDS011;28319;48.116;10.818;2023-09-30T19:04:07;9.70;;;4.93;;
41984;SDS011;28319;48.116;10.818;2023-09-30T19:09:11;6.68;;;4.45;;
41984;SDS011;28319;48.116;10.818;2023-09-30T19:14:13;8.88;;;4.53;;
41984;SDS011;28319;48.116;10.818;2023-09-30T19:19:15;7.05;;;4.63;;
41984;SDS011;28319;48.116;10.818;2023-09-30T19:24:18;10.18;;;4.95;;
41984;SDS011;28319;48.116;10.818;2023-09-30T19:29:20;10.52;;;4.65;;
41984;SDS011;28319;48.116;10.818;2023-09-30T19:34:22;7.88;;;4.25;;
41984;SDS011;28319;48.116;10.818;2023-09-30T19:39:27;8.27;;;4.78;;
41984;SDS011;28319;48.116;10.818;2023-09-30T19:44:29;7.82;;;4.55;;
41984;SDS011;28319;48.116;10.818;2023-09-30T19:49:32;10.05;;;4.70;;
41984;SDS011;28319;48.116;10.818;2023-09-30T19:54:39;10.70;;;5.03;;
41984;SDS011;28319;48.116;10.818;2023-09-30T19:59:40;7.07;;;4.22;;
41984;SDS011;28319;48.116;10.818;2023-09-30T20:04:43;8.77;;;4.93;;
41984;SDS011;28319;48.116;10.818;2023-09-30T20:09:46;7.70;;;4.43;;
41984;SDS011;28319;48.116;10.818;2023-09-30T20:14:51;9.15;;;4.60;;
41984;SDS011;28319;48.116;10.818;2023-09-30T20:19:53;10.20;;;5.05;;
41984;SDS011;28319;48.116;10.818;2023-09-30T20:24:57;9.27;;;5.00;;
41984;SDS011;28319;48.116;10.818;2023-09-30T20:30:02;11.25;;;5.85;;
41984;SDS011;28319;48.116;10.818;2023-09-30T20:35:05;9.75;;;4.82;;
41984;SDS011;28319;48.116;10.818;2023-09-30T20:40:11;7.53;;;4.78;;
41984;SDS011;28319;48.116;10.818;2023-09-30T20:45:14;10.57;;;5.32;;
41984;SDS011;28319;48.116;10.818;2023-09-30T20:50:16;8.93;;;4.93;;
41984;SDS011;28319;48.116;10.818;2023-09-30T20:55:20;6.85;;;4.22;;
41984;SDS011;28319;48.116;10.818;2023-09-30T21:00:22;8.30;;;4.57;;
41984;SDS011;28319;48.116;10.818;2023-09-30T21:05:24;11.85;;;5.00;;
41984;SDS011;28319;48.116;10.818;2023-09-30T21:10:27;9.65;;;4.70;;
41984;SDS011;28319;48.116;10.818;2023-09-30T21:15:29;9.40;;;4.75;;
41984;SDS011;28319;48.116;10.818;2023-09-30T21:20:35;8.77;;;4.80;;
41984;SDS011;28319;48.116;10.818;2023-09-30T21:25:39;9.68;;;4.40;;
41984;SDS011;28319;48.116;10.818;2023-09-30T21:30:41;9.77;;;4.60;;
41984;SDS011;28319;48.116;10.818;2023-09-30T21:35:43;7.82;;;4.40;;
41984;SDS011;28319;48.116;10.818;2023-09-30T21:40:56;10.50;;;5.03;;
41984;SDS011;28319;48.116;10.818;2023-09-30T21:45:59;9.35;;;4.72;;
41984;SDS011;28319;48.116;10.818;2023-09-30T21:51:01;10.63;;;4.72;;
41984;SDS011;28319;48.116;10.818;2023-09-30T21:56:05;9.15;;;4.20;;
41984;SDS011;28319;48.116;10.818;2023-09-30T22:01:07;8.10;;;4.50;;
41984;SDS011;28319;48.116;10.818;2023-09-30T22:06:09;8.35;;;4.88;;
41984;SDS011;28319;48.116;10.818;2023-09-30T22:11:14;8.57;;;4.63;;
41984;SDS011;28319;48.116;10.818;2023-09-30T22:16:17;6.25;;;4.18;;
41984;SDS011;28319;48.116;10.818;2023-09-30T22:21:20;8.63;;;4.72;;
41984;SDS011;28319;48.116;10.818;2023-09-30T22:26:24;10.57;;;4.47;;
41984;SDS011;28319;48.116;10.818;2023-09-30T22:31:26;9.33;;;4.43;;
41984;SDS011;28319;48.116;10.818;2023-09-30T22:36:28;7.77;;;4.30;;
41984;SDS011;28319;48.116;10.818;2023-09-30T22:41:33;7.77;;;4.70;;
41984;SDS011;28319;48.116;10.818;2023-09-30T22:46:35;9.67;;;5.10;;
41984;SDS011;28319;48.116;10.818;2023-09-30T22:51:37;8.80;;;4.83;;
41984;SDS011;28319;48.116;10.818;2023-09-30T22:56:41;9.20;;;5.13;;
41984;SDS011;28319;48.116;10.818;2023-09-30T23:01:43;10.50;;;4.83;;
41984;SDS011;28319;48.116;10.818;2023-09-30T23:06:45;8.97;;;5.50;;
41984;SDS011;28319;48.116;10.818;2023-09-30T23:11:48;8.30;;;4.70;;
41984;SDS011;28319;48.116;10.818;2023-09-30T23:16:50;7.90;;;5.20;;
41984;SDS011;28319;48.116;10.818;2023-09-30T23:21:55;8.93;;;4.77;;
41984;SDS011;28319;48.116;10.818;2023-09-30T23:26:59;10.87;;;5.17;;
41984;SDS011;28319;48.116;10.818;2023-09-30T23:32:06;11.37;;;5.93;;
41984;SDS011;28319;48.116;10.818;2023-09-30T23:37:10;9.23;;;5.30;;
41984;SDS011;28319;48.116;10.818;2023-09-30T23:42:14;8.57;;;4.70;;
41984;SDS011;28319;48.116;10.818;2023-09-30T23:47:16;9.50;;;5.00;;
41984;SDS011;28319;48.116;10.818;2023-09-30T23:52:18;8.47;;;5.53;;
41984;SDS011;28319;48.116;10.818;2023-09-30T23:57:24;8.17;;;5.27;;
